sensor_id;sensor_type;location;lat;lon;timestamp;P1;durP1;ratioP1;P2;durP2;ratioP2
20251;SDS011;10284;58.364;15.550;2024-01-25T00:00:50;1.50;;;1.40;;
20251;SDS011;10284;58.364;15.550;2024-01-25T00:03:16;1.60;;;1.38;;
20251;SDS011;10284;58.364;15.550;2024-01-25T00:05:41;1.33;;;1.23;;
20251;SDS011;10284;58.364;15.550;2024-01-25T00:08:06;1.38;;;1.10;;
20251;SDS011;10284;58.364;15.550;2024-01-25T00:10:32;1.30;;;1.20;;
20251;SDS011;10284;58.364;15.550;2024-01-25T00:12:57;1.83;;;1.65;;
20251;SDS011;10284;58.364;15.550;2024-01-25T00:15:23;1.40;;;1.30;;
20251;SDS011;10284;58.364;15.550;2024-01-25T00:17:48;1.02;;;1.02;;
20251;SDS011;10284;58.364;15.550;2024-01-25T00:20:13;1.50;;;1.40;;
20251;SDS011;10284;58.364;15.550;2024-01-25T00:22:39;1.58;;;1.40;;
20251;SDS011;10284;58.364;15.550;2024-01-25T00:25:05;1.50;;;1.40;;
20251;SDS011;10284;58.364;15.550;2024-01-25T00:27:31;1.10;;;1.10;;
20251;SDS011;10284;58.364;15.550;2024-01-25T00:29:56;1.30;;;1.20;;
20251;SDS011;10284;58.364;15.550;2024-01-25T00:32:22;1.48;;;1.10;;
20251;SDS011;10284;58.364;15.550;2024-01-25T00:34:47;1.27;;;1.17;;
20251;SDS011;10284;58.364;15.550;2024-01-25T00:37:13;1.40;;;1.30;;
20251;SDS011;10284;58.364;15.550;2024-01-25T00:39:38;1.20;;;1.10;;
20251;SDS011;10284;58.364;15.550;2024-01-25T00:42:04;1.40;;;1.30;;
20251;SDS011;10284;58.364;15.550;2024-01-25T00:44:31;1.20;;;1.10;;
20251;SDS011;10284;58.364;15.550;2024-01-25T00:46:57;1.38;;;1.27;;
20251;SDS011;10284;58.364;15.550;2024-01-25T00:49:23;2.05;;;1.15;;
20251;SDS011;10284;58.364;15.550;2024-01-25T00:51:48;1.20;;;1.10;;
20251;SDS011;10284;58.364;15.550;2024-01-25T00:54:15;1.50;;;1.40;;
20251;SDS011;10284;58.364;15.550;2024-01-25T00:56:41;1.10;;;1.10;;
20251;SDS011;10284;58.364;15.550;2024-01-25T00:59:07;1.00;;;1.00;;
20251;SDS011;10284;58.364;15.550;2024-01-25T01:01:33;1.05;;;1.05;;
20251;SDS011;10284;58.364;15.550;2024-01-25T01:03:59;1.00;;;1.00;;
20251;SDS011;10284;58.364;15.550;2024-01-25T01:06:25;0.90;;;0.90;;
20251;SDS011;10284;58.364;15.550;2024-01-25T01:08:51;0.95;;;0.95;;
20251;SDS011;10284;58.364;15.550;2024-01-25T01:11:17;1.10;;;1.00;;
20251;SDS011;10284;58.364;15.550;2024-01-25T01:13:43;1.58;;;1.10;;
20251;SDS011;10284;58.364;15.550;2024-01-25T01:16:08;1.38;;;1.27;;
20251;SDS011;10284;58.364;15.550;2024-01-25T01:18:34;1.30;;;1.20;;
20251;SDS011;10284;58.364;15.550;2024-01-25T01:20:59;1.20;;;1.10;;
20251;SDS011;10284;58.364;15.550;2024-01-25T01:23:25;1.60;;;1.50;;
20251;SDS011;10284;58.364;15.550;2024-01-25T01:25:50;1.52;;;1.42;;
20251;SDS011;10284;58.364;15.550;2024-01-25T01:28:15;1.17;;;1.10;;
20251;SDS011;10284;58.364;15.550;2024-01-25T01:30:41;1.30;;;1.20;;
20251;SDS011;10284;58.364;15.550;2024-01-25T01:33:09;1.30;;;1.20;;
20251;SDS011;10284;58.364;15.550;2024-01-25T01:35:35;1.10;;;1.10;;
20251;SDS011;10284;58.364;15.550;2024-01-25T01:38:00;1.50;;;1.40;;
20251;SDS011;10284;58.364;15.550;2024-01-25T01:40:26;1.45;;;1.35;;
20251;SDS011;10284;58.364;15.550;2024-01-25T01:42:51;1.17;;;1.10;;
20251;SDS011;10284;58.364;15.550;2024-01-25T01:45:16;1.33;;;1.23;;
20251;SDS011;10284;58.364;15.550;2024-01-25T01:47:42;1.00;;;1.00;;
20251;SDS011;10284;58.364;15.550;2024-01-25T01:50:08;1.27;;;1.17;;
20251;SDS011;10284;58.364;15.550;2024-01-25T01:52:34;1.45;;;1.15;;
20251;SDS011;10284;58.364;15.550;2024-01-25T01:54:59;1.23;;;1.20;;
20251;SDS011;10284;58.364;15.550;2024-01-25T01:57:25;1.52;;;1.27;;
20251;SDS011;10284;58.364;15.550;2024-01-25T01:59:51;1.38;;;1.27;;
20251;SDS011;10284;58.364;15.550;2024-01-25T02:02:17;1.48;;;1.38;;
20251;SDS011;10284;58.364;15.550;2024-01-25T02:04:43;1.38;;;1.20;;
20251;SDS011;10284;58.364;15.550;2024-01-25T02:07:08;2.58;;;1.50;;
20251;SDS011;10284;58.364;15.550;2024-01-25T02:09:34;1.30;;;1.20;;
20251;SDS011;10284;58.364;15.550;2024-01-25T02:12:02;1.60;;;1.50;;
20251;SDS011;10284;58.364;15.550;2024-01-25T02:14:28;1.88;;;1.50;;
20251;SDS011;10284;58.364;15.550;2024-01-25T02:16:53;1.40;;;1.30;;
20251;SDS011;10284;58.364;15.550;2024-01-25T02:19:19;1.30;;;1.20;;
20251;SDS011;10284;58.364;15.550;2024-01-25T02:21:44;1.40;;;1.30;;
20251;SDS011;10284;58.364;15.550;2024-01-25T02:24:10;1.17;;;1.08;;
20251;SDS011;10284;58.364;15.550;2024-01-25T02:26:35;1.50;;;1.40;;
20251;SDS011;10284;58.364;15.550;2024-01-25T02:29:01;1.40;;;1.30;;
20251;SDS011;10284;58.364;15.550;2024-01-25T02:31:27;1.45;;;1.35;;
20251;SDS011;10284;58.364;15.550;2024-01-25T02:33:53;1.33;;;1.23;;
20251;SDS011;10284;58.364;15.550;2024-01-25T02:36:18;1.70;;;1.60;;
20251;SDS011;10284;58.364;15.550;2024-01-25T02:38:46;1.35;;;1.25;;
20251;SDS011;10284;58.364;15.550;2024-01-25T02:41:12;1.60;;;1.50;;
20251;SDS011;10284;58.364;15.550;2024-01-25T02:43:37;1.05;;;1.05;;
20251;SDS011;10284;58.364;15.550;2024-01-25T02:46:02;1.27;;;1.20;;
20251;SDS011;10284;58.364;15.550;2024-01-25T02:48:28;1.30;;;1.20;;
20251;SDS011;10284;58.364;15.550;2024-01-25T02:50:53;2.22;;;1.50;;
20251;SDS011;10284;58.364;15.550;2024-01-25T02:53:19;2.53;;;1.60;;
20251;SDS011;10284;58.364;15.550;2024-01-25T02:55:44;1.50;;;1.40;;
20251;SDS011;10284;58.364;15.550;2024-01-25T02:58:09;1.60;;;1.50;;
20251;SDS011;10284;58.364;15.550;2024-01-25T03:00:35;1.88;;;1.77;;
20251;SDS011;10284;58.364;15.550;2024-01-25T03:03:00;1.50;;;1.40;;
20251;SDS011;10284;58.364;15.550;2024-01-25T03:05:25;1.63;;;1.52;;
20251;SDS011;10284;58.364;15.550;2024-01-25T03:07:51;1.50;;;1.40;;
20251;SDS011;10284;58.364;15.550;2024-01-25T03:10:16;1.13;;;1.10;;
20251;SDS011;10284;58.364;15.550;2024-01-25T03:12:41;1.42;;;1.33;;
20251;SDS011;10284;58.364;15.550;2024-01-25T03:15:07;1.48;;;1.38;;
20251;SDS011;10284;58.364;15.550;2024-01-25T03:17:34;1.38;;;1.27;;
20251;SDS011;10284;58.364;15.550;2024-01-25T03:19:59;1.25;;;1.20;;
20251;SDS011;10284;58.364;15.550;2024-01-25T03:22:25;1.00;;;1.00;;
20251;SDS011;10284;58.364;15.550;2024-01-25T03:24:50;1.10;;;1.10;;
20251;SDS011;10284;58.364;15.550;2024-01-25T03:27:15;1.23;;;1.13;;
20251;SDS011;10284;58.364;15.550;2024-01-25T03:29:41;1.30;;;1.20;;
20251;SDS011;10284;58.364;15.550;2024-01-25T03:32:08;0.93;;;0.93;;
20251;SDS011;10284;58.364;15.550;2024-01-25T03:34:34;1.10;;;1.00;;
20251;SDS011;10284;58.364;15.550;2024-01-25T03:36:59;1.10;;;1.05;;
20251;SDS011;10284;58.364;15.550;2024-01-25T03:39:25;0.80;;;0.80;;
20251;SDS011;10284;58.364;15.550;2024-01-25T03:41:50;0.95;;;0.95;;
20251;SDS011;10284;58.364;15.550;2024-01-25T03:44:15;1.40;;;0.98;;
20251;SDS011;10284;58.364;15.550;2024-01-25T03:46:41;0.80;;;0.80;;
20251;SDS011;10284;58.364;15.550;2024-01-25T03:49:06;0.90;;;0.88;;
20251;SDS011;10284;58.364;15.550;2024-01-25T03:51:32;0.88;;;0.88;;
20251;SDS011;10284;58.364;15.550;2024-01-25T03:53:57;0.80;;;0.80;;
20251;SDS011;10284;58.364;15.550;2024-01-25T03:56:23;0.90;;;0.90;;
20251;SDS011;10284;58.364;15.550;2024-01-25T03:58:49;0.70;;;0.70;;
20251;SDS011;10284;58.364;15.550;2024-01-25T04:01:14;0.70;;;0.70;;
20251;SDS011;10284;58.364;15.550;2024-01-25T04:03:40;0.70;;;0.70;;
20251;SDS011;10284;58.364;15.550;2024-01-25T04:06:06;0.80;;;0.80;;
20251;SDS011;10284;58.364;15.550;2024-01-25T04:08:31;0.68;;;0.68;;
20251;SDS011;10284;58.364;15.550;2024-01-25T04:10:57;0.60;;;0.60;;
20251;SDS011;10284;58.364;15.550;2024-01-25T04:13:22;0.70;;;0.70;;
20251;SDS011;10284;58.364;15.550;2024-01-25T04:15:48;0.80;;;0.80;;
20251;SDS011;10284;58.364;15.550;2024-01-25T04:18:13;0.63;;;0.63;;
20251;SDS011;10284;58.364;15.550;2024-01-25T04:20:39;0.60;;;0.60;;
20251;SDS011;10284;58.364;15.550;2024-01-25T04:23:06;0.60;;;0.60;;
20251;SDS011;10284;58.364;15.550;2024-01-25T04:25:31;0.70;;;0.70;;
20251;SDS011;10284;58.364;15.550;2024-01-25T04:27:57;0.68;;;0.68;;
20251;SDS011;10284;58.364;15.550;2024-01-25T04:30:22;0.70;;;0.70;;
20251;SDS011;10284;58.364;15.550;2024-01-25T04:32:47;0.60;;;0.60;;
20251;SDS011;10284;58.364;15.550;2024-01-25T04:35:13;0.70;;;0.70;;
20251;SDS011;10284;58.364;15.550;2024-01-25T04:37:38;0.70;;;0.70;;
20251;SDS011;10284;58.364;15.550;2024-01-25T04:40:04;0.88;;;0.60;;
20251;SDS011;10284;58.364;15.550;2024-01-25T04:42:30;0.70;;;0.70;;
20251;SDS011;10284;58.364;15.550;2024-01-25T04:44:55;0.70;;;0.70;;
20251;SDS011;10284;58.364;15.550;2024-01-25T04:47:21;0.60;;;0.60;;
20251;SDS011;10284;58.364;15.550;2024-01-25T04:49:47;0.70;;;0.70;;
20251;SDS011;10284;58.364;15.550;2024-01-25T04:52:12;0.52;;;0.52;;
20251;SDS011;10284;58.364;15.550;2024-01-25T04:54:37;0.60;;;0.60;;
20251;SDS011;10284;58.364;15.550;2024-01-25T04:57:03;0.65;;;0.65;;
20251;SDS011;10284;58.364;15.550;2024-01-25T04:59:31;0.60;;;0.60;;
20251;SDS011;10284;58.364;15.550;2024-01-25T05:01:59;0.60;;;0.60;;
20251;SDS011;10284;58.364;15.550;2024-01-25T05:04:25;0.70;;;0.70;;
20251;SDS011;10284;58.364;15.550;2024-01-25T05:06:50;0.63;;;0.63;;
20251;SDS011;10284;58.364;15.550;2024-01-25T05:09:15;0.70;;;0.70;;
20251;SDS011;10284;58.364;15.550;2024-01-25T05:11:41;0.68;;;0.68;;
20251;SDS011;10284;58.364;15.550;2024-01-25T05:14:06;0.90;;;0.90;;
20251;SDS011;10284;58.364;15.550;2024-01-25T05:16:32;0.80;;;0.80;;
20251;SDS011;10284;58.364;15.550;2024-01-25T05:18:57;0.80;;;0.80;;
20251;SDS011;10284;58.364;15.550;2024-01-25T05:21:23;0.65;;;0.65;;
20251;SDS011;10284;58.364;15.550;2024-01-25T05:23:48;0.60;;;0.60;;
20251;SDS011;10284;58.364;15.550;2024-01-25T05:26:14;0.82;;;0.70;;
20251;SDS011;10284;58.364;15.550;2024-01-25T05:28:40;0.60;;;0.60;;
20251;SDS011;10284;58.364;15.550;2024-01-25T05:31:05;0.70;;;0.70;;
20251;SDS011;10284;58.364;15.550;2024-01-25T05:33:37;0.70;;;0.70;;
20251;SDS011;10284;58.364;15.550;2024-01-25T05:36:02;0.60;;;0.60;;
20251;SDS011;10284;58.364;15.550;2024-01-25T05:38:28;0.52;;;0.52;;
20251;SDS011;10284;58.364;15.550;2024-01-25T05:40:53;0.70;;;0.70;;
20251;SDS011;10284;58.364;15.550;2024-01-25T05:43:18;0.60;;;0.60;;
20251;SDS011;10284;58.364;15.550;2024-01-25T05:45:44;0.60;;;0.60;;
20251;SDS011;10284;58.364;15.550;2024-01-25T05:48:10;0.60;;;0.60;;
20251;SDS011;10284;58.364;15.550;2024-01-25T05:50:35;0.52;;;0.52;;
20251;SDS011;10284;58.364;15.550;2024-01-25T05:53:00;0.45;;;0.45;;
20251;SDS011;10284;58.364;15.550;2024-01-25T05:55:26;0.50;;;0.50;;
20251;SDS011;10284;58.364;15.550;2024-01-25T05:57:51;0.50;;;0.50;;
20251;SDS011;10284;58.364;15.550;2024-01-25T06:00:16;0.60;;;0.60;;
20251;SDS011;10284;58.364;15.550;2024-01-25T06:02:42;0.68;;;0.60;;
20251;SDS011;10284;58.364;15.550;2024-01-25T06:05:08;1.27;;;0.60;;
20251;SDS011;10284;58.364;15.550;2024-01-25T06:07:34;0.50;;;0.50;;
20251;SDS011;10284;58.364;15.550;2024-01-25T06:09:59;0.40;;;0.40;;
20251;SDS011;10284;58.364;15.550;2024-01-25T06:12:25;1.70;;;0.73;;
20251;SDS011;10284;58.364;15.550;2024-01-25T06:14:50;0.60;;;0.60;;
20251;SDS011;10284;58.364;15.550;2024-01-25T06:17:17;1.10;;;0.70;;
20251;SDS011;10284;58.364;15.550;2024-01-25T06:19:42;0.70;;;0.70;;
20251;SDS011;10284;58.364;15.550;2024-01-25T06:22:08;0.60;;;0.60;;
20251;SDS011;10284;58.364;15.550;2024-01-25T06:24:33;2.05;;;0.70;;
20251;SDS011;10284;58.364;15.550;2024-01-25T06:26:59;0.70;;;0.70;;
20251;SDS011;10284;58.364;15.550;2024-01-25T06:29:24;0.90;;;0.90;;
20251;SDS011;10284;58.364;15.550;2024-01-25T06:31:49;0.80;;;0.80;;
20251;SDS011;10284;58.364;15.550;2024-01-25T06:34:15;0.80;;;0.80;;
20251;SDS011;10284;58.364;15.550;2024-01-25T06:36:40;0.63;;;0.63;;
20251;SDS011;10284;58.364;15.550;2024-01-25T06:39:06;0.70;;;0.70;;
20251;SDS011;10284;58.364;15.550;2024-01-25T06:41:31;0.73;;;0.73;;
20251;SDS011;10284;58.364;15.550;2024-01-25T06:43:57;0.77;;;0.77;;
20251;SDS011;10284;58.364;15.550;2024-01-25T06:46:22;0.73;;;0.73;;
20251;SDS011;10284;58.364;15.550;2024-01-25T06:48:48;0.70;;;0.70;;
20251;SDS011;10284;58.364;15.550;2024-01-25T06:51:15;1.00;;;0.95;;
20251;SDS011;10284;58.364;15.550;2024-01-25T06:53:40;0.70;;;0.70;;
20251;SDS011;10284;58.364;15.550;2024-01-25T06:56:06;1.00;;;1.00;;
20251;SDS011;10284;58.364;15.550;2024-01-25T06:58:31;0.95;;;0.90;;
20251;SDS011;10284;58.364;15.550;2024-01-25T07:00:57;0.80;;;0.80;;
20251;SDS011;10284;58.364;15.550;2024-01-25T07:03:22;1.27;;;1.10;;
20251;SDS011;10284;58.364;15.550;2024-01-25T07:05:47;0.98;;;0.98;;
20251;SDS011;10284;58.364;15.550;2024-01-25T07:08:13;1.58;;;0.90;;
20251;SDS011;10284;58.364;15.550;2024-01-25T07:10:41;1.13;;;1.02;;
20251;SDS011;10284;58.364;15.550;2024-01-25T07:13:07;2.13;;;1.05;;
20251;SDS011;10284;58.364;15.550;2024-01-25T07:15:33;0.65;;;0.65;;
20251;SDS011;10284;58.364;15.550;2024-01-25T07:17:58;0.80;;;0.80;;
20251;SDS011;10284;58.364;15.550;2024-01-25T07:20:23;0.90;;;0.90;;
20251;SDS011;10284;58.364;15.550;2024-01-25T07:22:49;1.25;;;0.90;;
20251;SDS011;10284;58.364;15.550;2024-01-25T07:25:14;0.70;;;0.70;;
20251;SDS011;10284;58.364;15.550;2024-01-25T07:27:43;0.70;;;0.70;;
20251;SDS011;10284;58.364;15.550;2024-01-25T07:30:09;0.80;;;0.80;;
20251;SDS011;10284;58.364;15.550;2024-01-25T07:32:35;0.70;;;0.70;;
20251;SDS011;10284;58.364;15.550;2024-01-25T07:35:01;1.08;;;0.98;;
20251;SDS011;10284;58.364;15.550;2024-01-25T07:37:26;0.75;;;0.75;;
20251;SDS011;10284;58.364;15.550;2024-01-25T07:39:51;1.55;;;1.17;;
20251;SDS011;10284;58.364;15.550;2024-01-25T07:42:17;1.15;;;1.10;;
20251;SDS011;10284;58.364;15.550;2024-01-25T07:44:43;1.67;;;1.58;;
20251;SDS011;10284;58.364;15.550;2024-01-25T07:47:08;1.42;;;1.33;;
20251;SDS011;10284;58.364;15.550;2024-01-25T07:49:33;1.23;;;1.13;;
20251;SDS011;10284;58.364;15.550;2024-01-25T07:51:59;1.15;;;1.05;;
20251;SDS011;10284;58.364;15.550;2024-01-25T07:54:24;1.05;;;0.80;;
20251;SDS011;10284;58.364;15.550;2024-01-25T07:56:50;0.80;;;0.80;;
20251;SDS011;10284;58.364;15.550;2024-01-25T07:59:15;0.88;;;0.88;;
20251;SDS011;10284;58.364;15.550;2024-01-25T08:01:40;0.80;;;0.80;;
20251;SDS011;10284;58.364;15.550;2024-01-25T08:04:06;0.63;;;0.63;;
20251;SDS011;10284;58.364;15.550;2024-01-25T08:06:31;1.58;;;0.80;;
20251;SDS011;10284;58.364;15.550;2024-01-25T08:08:57;0.70;;;0.70;;
20251;SDS011;10284;58.364;15.550;2024-01-25T08:11:22;0.80;;;0.80;;
20251;SDS011;10284;58.364;15.550;2024-01-25T08:13:48;0.88;;;0.88;;
20251;SDS011;10284;58.364;15.550;2024-01-25T08:16:14;0.80;;;0.80;;
20251;SDS011;10284;58.364;15.550;2024-01-25T08:18:44;0.82;;;0.82;;
20251;SDS011;10284;58.364;15.550;2024-01-25T08:21:10;0.90;;;0.90;;
20251;SDS011;10284;58.364;15.550;2024-01-25T08:23:36;1.25;;;0.85;;
20251;SDS011;10284;58.364;15.550;2024-01-25T08:26:02;0.80;;;0.80;;
20251;SDS011;10284;58.364;15.550;2024-01-25T08:28:27;0.90;;;0.90;;
20251;SDS011;10284;58.364;15.550;2024-01-25T08:30:53;0.80;;;0.80;;
20251;SDS011;10284;58.364;15.550;2024-01-25T08:33:18;0.70;;;0.70;;
20251;SDS011;10284;58.364;15.550;2024-01-25T08:35:44;0.80;;;0.80;;
20251;SDS011;10284;58.364;15.550;2024-01-25T08:38:09;0.70;;;0.70;;
20251;SDS011;10284;58.364;15.550;2024-01-25T08:40:34;0.90;;;0.90;;
20251;SDS011;10284;58.364;15.550;2024-01-25T08:43:00;0.75;;;0.75;;
20251;SDS011;10284;58.364;15.550;2024-01-25T08:45:25;0.70;;;0.70;;
20251;SDS011;10284;58.364;15.550;2024-01-25T08:47:51;0.90;;;0.90;;
20251;SDS011;10284;58.364;15.550;2024-01-25T08:50:17;0.70;;;0.70;;
20251;SDS011;10284;58.364;15.550;2024-01-25T08:52:42;0.77;;;0.77;;
20251;SDS011;10284;58.364;15.550;2024-01-25T08:55:08;1.00;;;1.00;;
20251;SDS011;10284;58.364;15.550;2024-01-25T08:57:36;0.77;;;0.77;;
20251;SDS011;10284;58.364;15.550;2024-01-25T09:00:02;0.80;;;0.80;;
20251;SDS011;10284;58.364;15.550;2024-01-25T09:02:33;0.90;;;0.90;;
20251;SDS011;10284;58.364;15.550;2024-01-25T09:04:59;1.17;;;0.77;;
20251;SDS011;10284;58.364;15.550;2024-01-25T09:07:24;0.93;;;0.93;;
20251;SDS011;10284;58.364;15.550;2024-01-25T09:09:50;0.90;;;0.90;;
20251;SDS011;10284;58.364;15.550;2024-01-25T09:12:15;0.93;;;0.90;;
20251;SDS011;10284;58.364;15.550;2024-01-25T09:14:41;1.10;;;1.10;;
20251;SDS011;10284;58.364;15.550;2024-01-25T09:17:07;1.00;;;1.00;;
20251;SDS011;10284;58.364;15.550;2024-01-25T09:19:33;1.15;;;1.15;;
20251;SDS011;10284;58.364;15.550;2024-01-25T09:21:59;1.15;;;1.10;;
20251;SDS011;10284;58.364;15.550;2024-01-25T09:24:29;0.80;;;0.80;;
20251;SDS011;10284;58.364;15.550;2024-01-25T09:26:54;0.90;;;0.90;;
20251;SDS011;10284;58.364;15.550;2024-01-25T09:29:21;1.13;;;1.08;;
20251;SDS011;10284;58.364;15.550;2024-01-25T09:31:46;0.90;;;0.90;;
20251;SDS011;10284;58.364;15.550;2024-01-25T09:34:11;1.63;;;1.05;;
20251;SDS011;10284;58.364;15.550;2024-01-25T09:36:37;1.30;;;1.20;;
20251;SDS011;10284;58.364;15.550;2024-01-25T09:39:02;1.10;;;1.10;;
20251;SDS011;10284;58.364;15.550;2024-01-25T09:41:29;1.48;;;1.38;;
20251;SDS011;10284;58.364;15.550;2024-01-25T09:43:54;1.55;;;1.45;;
20251;SDS011;10284;58.364;15.550;2024-01-25T09:46:20;1.30;;;1.20;;
20251;SDS011;10284;58.364;15.550;2024-01-25T09:48:45;1.30;;;1.20;;
20251;SDS011;10284;58.364;15.550;2024-01-25T09:51:12;1.30;;;1.20;;
20251;SDS011;10284;58.364;15.550;2024-01-25T09:53:39;1.35;;;1.30;;
20251;SDS011;10284;58.364;15.550;2024-01-25T09:56:07;1.83;;;1.50;;
20251;SDS011;10284;58.364;15.550;2024-01-25T10:01:07;1.58;;;1.48;;
20251;SDS011;10284;58.364;15.550;2024-01-25T10:03:34;1.67;;;1.58;;
20251;SDS011;10284;58.364;15.550;2024-01-25T10:06:00;1.60;;;1.50;;
20251;SDS011;10284;58.364;15.550;2024-01-25T10:08:25;1.75;;;1.65;;
20251;SDS011;10284;58.364;15.550;2024-01-25T10:10:51;1.60;;;1.50;;
20251;SDS011;10284;58.364;15.550;2024-01-25T10:13:18;1.60;;;1.50;;
20251;SDS011;10284;58.364;15.550;2024-01-25T10:15:44;1.40;;;1.30;;
20251;SDS011;10284;58.364;15.550;2024-01-25T10:18:12;1.70;;;1.60;;
20251;SDS011;10284;58.364;15.550;2024-01-25T10:20:42;1.40;;;1.30;;
20251;SDS011;10284;58.364;15.550;2024-01-25T10:23:07;1.70;;;1.60;;
20251;SDS011;10284;58.364;15.550;2024-01-25T10:25:36;1.65;;;1.40;;
20251;SDS011;10284;58.364;15.550;2024-01-25T10:28:05;1.52;;;1.42;;
20251;SDS011;10284;58.364;15.550;2024-01-25T10:30:35;1.40;;;1.30;;
20251;SDS011;10284;58.364;15.550;2024-01-25T10:33:01;1.27;;;1.20;;
20251;SDS011;10284;58.364;15.550;2024-01-25T10:35:27;1.33;;;1.23;;
20251;SDS011;10284;58.364;15.550;2024-01-25T10:37:53;1.48;;;1.38;;
20251;SDS011;10284;58.364;15.550;2024-01-25T10:40:19;1.30;;;1.20;;
20251;SDS011;10284;58.364;15.550;2024-01-25T10:42:45;1.48;;;1.38;;
20251;SDS011;10284;58.364;15.550;2024-01-25T10:45:11;1.40;;;1.30;;
20251;SDS011;10284;58.364;15.550;2024-01-25T10:47:36;2.00;;;1.40;;
20251;SDS011;10284;58.364;15.550;2024-01-25T10:50:02;1.23;;;1.20;;
20251;SDS011;10284;58.364;15.550;2024-01-25T10:52:28;1.30;;;1.30;;
20251;SDS011;10284;58.364;15.550;2024-01-25T10:54:55;1.40;;;1.30;;
20251;SDS011;10284;58.364;15.550;2024-01-25T10:57:20;1.08;;;1.08;;
20251;SDS011;10284;58.364;15.550;2024-01-25T10:59:45;1.20;;;1.20;;
20251;SDS011;10284;58.364;15.550;2024-01-25T11:02:11;1.58;;;1.48;;
20251;SDS011;10284;58.364;15.550;2024-01-25T11:04:37;1.30;;;1.20;;
20251;SDS011;10284;58.364;15.550;2024-01-25T11:07:08;1.40;;;1.30;;
20251;SDS011;10284;58.364;15.550;2024-01-25T11:09:35;1.40;;;1.30;;
20251;SDS011;10284;58.364;15.550;2024-01-25T11:12:01;1.08;;;1.00;;
20251;SDS011;10284;58.364;15.550;2024-01-25T11:14:26;1.60;;;1.50;;
20251;SDS011;10284;58.364;15.550;2024-01-25T11:16:52;1.55;;;1.45;;
20251;SDS011;10284;58.364;15.550;2024-01-25T11:19:17;1.10;;;1.10;;
20251;SDS011;10284;58.364;15.550;2024-01-25T11:21:44;1.05;;;1.05;;
20251;SDS011;10284;58.364;15.550;2024-01-25T11:24:14;1.10;;;1.10;;
20251;SDS011;10284;58.364;15.550;2024-01-25T11:26:46;1.10;;;1.10;;
20251;SDS011;10284;58.364;15.550;2024-01-25T11:29:15;1.08;;;1.08;;
20251;SDS011;10284;58.364;15.550;2024-01-25T11:31:42;2.25;;;1.58;;
20251;SDS011;10284;58.364;15.550;2024-01-25T11:34:09;1.40;;;1.30;;
20251;SDS011;10284;58.364;15.550;2024-01-25T11:36:35;1.33;;;1.23;;
20251;SDS011;10284;58.364;15.550;2024-01-25T11:39:01;1.55;;;1.45;;
20251;SDS011;10284;58.364;15.550;2024-01-25T11:41:26;1.75;;;1.60;;
20251;SDS011;10284;58.364;15.550;2024-01-25T11:43:52;1.33;;;1.23;;
20251;SDS011;10284;58.364;15.550;2024-01-25T11:46:18;1.45;;;1.35;;
20251;SDS011;10284;58.364;15.550;2024-01-25T11:48:45;1.58;;;1.48;;
20251;SDS011;10284;58.364;15.550;2024-01-25T11:51:11;1.30;;;1.27;;
20251;SDS011;10284;58.364;15.550;2024-01-25T11:53:37;1.63;;;1.50;;
20251;SDS011;10284;58.364;15.550;2024-01-25T11:56:03;1.83;;;1.20;;
20251;SDS011;10284;58.364;15.550;2024-01-25T11:58:33;1.25;;;1.20;;
20251;SDS011;10284;58.364;15.550;2024-01-25T12:00:59;1.50;;;1.40;;
20251;SDS011;10284;58.364;15.550;2024-01-25T12:03:25;1.33;;;1.23;;
20251;SDS011;10284;58.364;15.550;2024-01-25T12:05:50;1.60;;;1.50;;
20251;SDS011;10284;58.364;15.550;2024-01-25T12:08:16;1.40;;;1.30;;
20251;SDS011;10284;58.364;15.550;2024-01-25T12:10:42;1.67;;;1.38;;
20251;SDS011;10284;58.364;15.550;2024-01-25T12:13:07;1.27;;;1.17;;
20251;SDS011;10284;58.364;15.550;2024-01-25T12:15:34;2.03;;;1.30;;
20251;SDS011;10284;58.364;15.550;2024-01-25T12:17:59;1.73;;;1.50;;
20251;SDS011;10284;58.364;15.550;2024-01-25T12:20:26;1.40;;;1.30;;
20251;SDS011;10284;58.364;15.550;2024-01-25T12:22:51;1.20;;;1.20;;
20251;SDS011;10284;58.364;15.550;2024-01-25T12:25:17;2.10;;;1.27;;
20251;SDS011;10284;58.364;15.550;2024-01-25T12:27:43;1.60;;;1.50;;
20251;SDS011;10284;58.364;15.550;2024-01-25T12:30:11;1.45;;;1.35;;
20251;SDS011;10284;58.364;15.550;2024-01-25T12:32:37;1.70;;;1.58;;
20251;SDS011;10284;58.364;15.550;2024-01-25T12:35:02;2.05;;;1.60;;
20251;SDS011;10284;58.364;15.550;2024-01-25T12:37:31;1.90;;;1.80;;
20251;SDS011;10284;58.364;15.550;2024-01-25T12:39:56;1.70;;;1.60;;
20251;SDS011;10284;58.364;15.550;2024-01-25T12:42:22;2.00;;;1.50;;
20251;SDS011;10284;58.364;15.550;2024-01-25T12:44:47;1.63;;;1.40;;
20251;SDS011;10284;58.364;15.550;2024-01-25T12:47:14;3.75;;;2.30;;
20251;SDS011;10284;58.364;15.550;2024-01-25T12:49:43;2.75;;;2.10;;
20251;SDS011;10284;58.364;15.550;2024-01-25T12:52:09;3.33;;;2.00;;
20251;SDS011;10284;58.364;15.550;2024-01-25T12:54:35;3.28;;;2.17;;
20251;SDS011;10284;58.364;15.550;2024-01-25T12:57:01;4.35;;;2.67;;
20251;SDS011;10284;58.364;15.550;2024-01-25T12:59:27;4.22;;;2.67;;
20251;SDS011;10284;58.364;15.550;2024-01-25T13:01:53;3.40;;;2.60;;
20251;SDS011;10284;58.364;15.550;2024-01-25T13:04:18;4.78;;;2.75;;
20251;SDS011;10284;58.364;15.550;2024-01-25T13:06:45;3.40;;;2.67;;
20251;SDS011;10284;58.364;15.550;2024-01-25T13:09:11;3.63;;;2.97;;
20251;SDS011;10284;58.364;15.550;2024-01-25T13:11:36;3.92;;;2.72;;
20251;SDS011;10284;58.364;15.550;2024-01-25T13:14:01;2.90;;;2.10;;
20251;SDS011;10284;58.364;15.550;2024-01-25T13:16:27;3.13;;;2.50;;
20251;SDS011;10284;58.364;15.550;2024-01-25T13:18:52;3.53;;;2.20;;
20251;SDS011;10284;58.364;15.550;2024-01-25T13:21:18;2.22;;;1.95;;
20251;SDS011;10284;58.364;15.550;2024-01-25T13:23:43;2.35;;;1.70;;
20251;SDS011;10284;58.364;15.550;2024-01-25T13:26:08;2.03;;;1.58;;
20251;SDS011;10284;58.364;15.550;2024-01-25T13:28:34;2.33;;;1.75;;
20251;SDS011;10284;58.364;15.550;2024-01-25T13:31:00;1.70;;;1.60;;
20251;SDS011;10284;58.364;15.550;2024-01-25T13:33:25;2.22;;;1.55;;
20251;SDS011;10284;58.364;15.550;2024-01-25T13:35:50;1.20;;;1.10;;
20251;SDS011;10284;58.364;15.550;2024-01-25T13:38:16;1.73;;;1.10;;
20251;SDS011;10284;58.364;15.550;2024-01-25T13:40:41;1.05;;;1.05;;
20251;SDS011;10284;58.364;15.550;2024-01-25T13:43:07;1.00;;;1.00;;
20251;SDS011;10284;58.364;15.550;2024-01-25T13:45:33;1.10;;;1.10;;
20251;SDS011;10284;58.364;15.550;2024-01-25T13:47:58;1.23;;;1.13;;
20251;SDS011;10284;58.364;15.550;2024-01-25T13:50:24;1.48;;;1.08;;
20251;SDS011;10284;58.364;15.550;2024-01-25T13:52:49;1.23;;;1.13;;
20251;SDS011;10284;58.364;15.550;2024-01-25T13:55:14;1.05;;;1.05;;
20251;SDS011;10284;58.364;15.550;2024-01-25T13:57:40;1.20;;;1.10;;
20251;SDS011;10284;58.364;15.550;2024-01-25T14:00:06;1.35;;;1.30;;
20251;SDS011;10284;58.364;15.550;2024-01-25T14:02:33;1.92;;;1.10;;
20251;SDS011;10284;58.364;15.550;2024-01-25T14:04:58;1.48;;;1.38;;
20251;SDS011;10284;58.364;15.550;2024-01-25T14:07:23;1.98;;;1.27;;
20251;SDS011;10284;58.364;15.550;2024-01-25T14:09:49;1.48;;;1.38;;
20251;SDS011;10284;58.364;15.550;2024-01-25T14:12:14;1.60;;;1.45;;
20251;SDS011;10284;58.364;15.550;2024-01-25T14:14:40;1.55;;;1.40;;
20251;SDS011;10284;58.364;15.550;2024-01-25T14:17:06;1.50;;;1.40;;
20251;SDS011;10284;58.364;15.550;2024-01-25T14:19:31;1.48;;;1.38;;
20251;SDS011;10284;58.364;15.550;2024-01-25T14:21:56;1.67;;;1.58;;
20251;SDS011;10284;58.364;15.550;2024-01-25T14:24:22;1.70;;;1.60;;
20251;SDS011;10284;58.364;15.550;2024-01-25T14:26:47;1.40;;;1.30;;